createdAt,value
2023-01-09T00:00:02.527Z,99368.06
2023-01-09T00:02:32.410Z,99369.41
2023-01-09T00:05:00.204Z,99364.53
2023-01-09T00:07:27.487Z,99369.97
2023-01-09T00:09:54.750Z,99367.56
2023-01-09T00:12:22.005Z,99356.56
2023-01-09T00:14:49.267Z,99385.16
2023-01-09T00:17:16.470Z,99382.78
2023-01-09T00:19:43.947Z,99380.91
2023-01-09T00:22:11.266Z,99378.72
2023-01-09T00:24:38.726Z,99387.69
2023-01-09T00:27:06.032Z,99376.19
2023-01-09T00:29:33.451Z,99382.78
2023-01-09T00:32:00.739Z,99389.44
2023-01-09T00:34:28.746Z,99389.75
2023-01-09T00:36:56.577Z,99383.97
2023-01-09T00:39:23.963Z,99377.03
2023-01-09T00:41:54.191Z,99381.59
2023-01-09T00:44:32.466Z,99370.81
2023-01-09T00:47:05.114Z,99374.84
2023-01-09T00:49:34.702Z,99382.31
2023-01-09T00:52:03.278Z,99383.97
2023-01-09T00:54:31.127Z,99379.13
2023-01-09T00:56:59.162Z,99399.44
2023-01-09T00:59:27.844Z,99390.25
2023-01-09T01:01:55.255Z,99388.88
2023-01-09T01:04:41.383Z,99378.91
2023-01-09T01:07:27.418Z,99380.06
2023-01-09T01:09:54.660Z,99384.66
2023-01-09T01:12:21.842Z,99389.81
2023-01-09T01:14:49.049Z,99394.38
2023-01-09T01:17:16.377Z,99394.44
2023-01-09T01:19:43.678Z,99389.75
2023-01-09T01:22:10.889Z,99378.97
2023-01-09T01:24:38.136Z,99395.22
2023-01-09T01:27:05.439Z,99380.13
2023-01-09T01:29:32.815Z,99383.66
2023-01-09T01:32:00.107Z,99402.06
2023-01-09T01:34:29.072Z,99405.50
2023-01-09T01:36:56.442Z,99422.56
2023-01-09T01:39:23.831Z,99418.84
2023-01-09T01:41:51.114Z,99417.63
2023-01-09T01:44:56.075Z,99414.53
2023-01-09T01:47:31.169Z,99422.03
2023-01-09T01:49:58.987Z,99411.97
2023-01-09T01:52:27.762Z,99417.47
2023-01-09T01:54:55.348Z,99420.94
2023-01-09T01:57:22.535Z,99408.69
2023-01-09T01:59:52.645Z,99412.53
2023-01-09T02:02:24.090Z,99409.00
2023-01-09T02:04:53.029Z,99411.28
2023-01-09T02:07:20.380Z,99411.28
2023-01-09T02:09:47.566Z,99404.03
2023-01-09T02:12:25.145Z,99419.06
2023-01-09T02:14:58.460Z,99415.94
2023-01-09T02:17:37.923Z,99439.19
2023-01-09T02:20:32.427Z,99430.09
2023-01-09T02:23:21.426Z,99426.88
2023-01-09T02:26:07.254Z,99428.03
2023-01-09T02:29:06.605Z,99428.84
2023-01-09T02:31:37.764Z,99428.09
2023-01-09T02:34:19.837Z,99444.72
2023-01-09T02:36:47.264Z,99446.31
2023-01-09T02:39:26.351Z,99440.34
2023-01-09T02:42:05.301Z,99452.19
2023-01-09T02:44:36.062Z,99444.28
2023-01-09T02:47:07.321Z,99456.88
2023-01-09T02:49:37.269Z,99462.06
2023-01-09T02:52:10.222Z,99444.59
2023-01-09T02:54:49.769Z,99451.22
2023-01-09T02:57:28.127Z,99455.66
2023-01-09T03:00:04.648Z,99450.34
2023-01-09T03:02:43.486Z,99445.94
2023-01-09T03:05:10.707Z,99445.78
2023-01-09T03:07:43.081Z,99452.53
2023-01-09T03:10:19.803Z,99451.03
2023-01-09T03:12:49.671Z,99452.81
2023-01-09T03:15:18.771Z,99458.91
2023-01-09T03:17:48.645Z,99467.34
2023-01-09T03:20:19.063Z,99472.53
2023-01-09T03:22:57.054Z,99468.06
2023-01-09T03:25:25.663Z,99481.47
2023-01-09T03:27:57.061Z,99472.69
2023-01-09T03:30:24.910Z,99474.91
2023-01-09T03:32:52.242Z,99475.13
2023-01-09T03:35:19.788Z,99480.06
2023-01-09T03:37:47.336Z,99477.69
2023-01-09T03:40:14.791Z,99481.63
2023-01-09T03:42:42.069Z,99484.09
2023-01-09T03:45:09.827Z,99486.78
2023-01-09T03:47:37.178Z,99484.88
2023-01-09T03:50:05.093Z,99480.38
2023-01-09T03:52:32.536Z,99474.88
2023-01-09T03:54:59.778Z,99482.28
2023-01-09T03:57:27.071Z,99478.38
2023-01-09T03:59:54.318Z,99478.91
2023-01-09T04:02:21.668Z,99493.66
2023-01-09T04:04:48.946Z,99489.00
2023-01-09T04:07:16.288Z,99495.84
2023-01-09T04:09:43.528Z,99503.34
2023-01-09T04:12:10.820Z,99524.91
2023-01-09T04:14:38.245Z,99524.09
2023-01-09T04:17:05.555Z,99524.16
2023-01-09T04:19:32.775Z,99530.13
2023-01-09T04:22:00.139Z,99527.78
2023-01-09T04:24:28.509Z,99540.00
2023-01-09T04:26:56.244Z,99539.06
2023-01-09T04:29:23.493Z,99533.09
2023-01-09T04:31:50.787Z,99528.72
2023-01-09T04:34:18.219Z,99530.84
2023-01-09T04:36:45.599Z,99526.19
2023-01-09T04:39:12.928Z,99521.91
2023-01-09T04:41:49.318Z,99529.00
2023-01-09T04:44:21.441Z,99528.19
2023-01-09T04:46:49.271Z,99532.63
2023-01-09T04:49:16.548Z,99521.38
2023-01-09T04:51:43.944Z,99527.31
2023-01-09T04:54:11.654Z,99526.41
2023-01-09T04:56:38.879Z,99533.75
2023-01-09T04:59:07.230Z,99526.41
2023-01-09T05:01:35.097Z,99531.41
2023-01-09T05:04:02.682Z,99528.19
2023-01-09T05:06:30.753Z,99518.38
2023-01-09T05:08:58.289Z,99525.78
2023-01-09T05:11:25.834Z,99532.06
2023-01-09T05:13:54.065Z,99539.66
2023-01-09T05:16:21.977Z,99544.91
2023-01-09T05:18:49.322Z,99549.69
2023-01-09T05:21:16.599Z,99551.53
2023-01-09T05:23:43.931Z,99549.59
2023-01-09T05:26:11.213Z,99548.47
2023-01-09T05:28:39.208Z,99557.06
2023-01-09T05:31:06.720Z,99567.13
2023-01-09T05:33:34.068Z,99572.88
2023-01-09T05:36:01.273Z,99564.28
2023-01-09T05:38:28.662Z,99583.22
2023-01-09T05:40:55.889Z,99578.41
2023-01-09T05:43:23.314Z,99574.03
2023-01-09T05:45:50.750Z,99591.34
2023-01-09T05:48:18.005Z,99589.16
2023-01-09T05:50:45.471Z,99586.38
2023-01-09T05:53:12.754Z,99593.09
2023-01-09T05:55:40.124Z,99595.94
2023-01-09T05:58:07.678Z,99593.31
2023-01-09T06:00:34.979Z,99603.75
2023-01-09T06:03:02.279Z,99603.25
2023-01-09T06:05:29.557Z,99597.22
2023-01-09T06:07:56.882Z,99594.50
2023-01-09T06:10:24.225Z,99604.00
2023-01-09T06:12:52.188Z,99601.59
2023-01-09T06:15:20.659Z,99598.97
2023-01-09T06:17:48.087Z,99600.91
2023-01-09T06:20:15.511Z,99603.53
2023-01-09T06:22:44.940Z,99602.28
2023-01-09T06:25:13.073Z,99621.78
2023-01-09T06:27:40.545Z,99622.00
2023-01-09T06:30:08.440Z,99634.22
2023-01-09T06:32:35.812Z,99640.28
2023-01-09T06:35:03.373Z,99644.31
2023-01-09T06:37:30.918Z,99634.94
2023-01-09T06:39:58.195Z,99649.16
2023-01-09T06:42:25.476Z,99651.47
2023-01-09T06:44:52.995Z,99654.00
2023-01-09T06:47:20.318Z,99648.34
2023-01-09T06:49:47.623Z,99655.41
2023-01-09T06:52:15.033Z,99666.06
2023-01-09T06:54:42.288Z,99664.63
2023-01-09T06:57:09.678Z,99676.72
2023-01-09T06:59:37.047Z,99666.72
2023-01-09T07:02:04.272Z,99675.13
2023-01-09T07:04:31.564Z,99675.94
2023-01-09T07:07:01.522Z,99679.59
2023-01-09T07:09:28.747Z,99692.84
2023-01-09T07:11:56.049Z,99696.97
2023-01-09T07:14:23.390Z,99700.31
2023-01-09T07:16:50.764Z,99699.13
2023-01-09T07:19:18.010Z,99700.19
2023-01-09T07:21:45.368Z,99711.81
2023-01-09T07:24:12.637Z,99702.41
2023-01-09T07:26:41.579Z,99700.00
2023-01-09T07:29:09.860Z,99707.72
2023-01-09T07:31:37.274Z,99708.91
2023-01-09T07:34:04.735Z,99714.97
2023-01-09T07:36:31.980Z,99699.72
2023-01-09T07:38:59.665Z,99706.19
2023-01-09T07:41:26.897Z,99703.88
2023-01-09T07:43:54.325Z,99722.69
2023-01-09T07:46:21.697Z,99710.28
2023-01-09T07:48:49.045Z,99725.03
2023-01-09T07:51:16.294Z,99724.84
2023-01-09T07:53:43.647Z,99736.50
2023-01-09T07:56:11.157Z,99735.78
2023-01-09T07:58:38.745Z,99749.19
2023-01-09T08:01:06.084Z,99748.16
2023-01-09T08:03:33.829Z,99752.09
2023-01-09T08:06:01.452Z,99771.31
2023-01-09T08:08:28.956Z,99763.75
2023-01-09T08:10:56.144Z,99771.38
2023-01-09T08:13:23.540Z,99767.91
2023-01-09T08:15:50.734Z,99764.34
2023-01-09T08:18:17.966Z,99775.63
2023-01-09T08:20:48.566Z,99793.69
2023-01-09T08:23:15.776Z,99783.84
2023-01-09T08:25:43.080Z,99786.50
2023-01-09T08:28:10.388Z,99791.22
2023-01-09T08:30:38.120Z,99785.38
2023-01-09T08:33:05.923Z,99789.97
2023-01-09T08:35:33.412Z,99793.09
2023-01-09T08:38:00.806Z,99798.69
2023-01-09T08:40:28.068Z,99782.81
2023-01-09T08:43:14.037Z,99795.50
2023-01-09T08:46:00.047Z,99797.16
2023-01-09T08:48:27.419Z,99810.94
2023-01-09T08:50:54.631Z,99811.94
2023-01-09T08:53:22.050Z,99815.63
2023-01-09T08:55:49.406Z,99821.88
2023-01-09T08:58:16.838Z,99822.31
2023-01-09T09:00:44.141Z,99838.03
2023-01-09T09:03:12.089Z,99837.59
2023-01-09T09:05:39.416Z,99839.03
2023-01-09T09:08:07.146Z,99845.28
2023-01-09T09:10:34.503Z,99847.28
2023-01-09T09:13:01.838Z,99852.56
2023-01-09T09:15:29.209Z,99861.00
2023-01-09T09:17:59.031Z,99853.34
2023-01-09T09:20:29.566Z,99876.97
2023-01-09T09:22:57.061Z,99869.72
2023-01-09T09:25:24.377Z,99879.41
2023-01-09T09:27:52.223Z,99890.28
2023-01-09T09:30:20.293Z,99904.47
2023-01-09T09:32:47.866Z,99905.59
2023-01-09T09:35:17.813Z,99882.72
2023-01-09T09:37:57.179Z,99908.28
2023-01-09T09:40:46.040Z,99907.84
2023-01-09T09:44:13.973Z,99906.72
2023-01-09T09:47:13.287Z,99916.59
2023-01-09T09:49:47.211Z,99913.09
2023-01-09T09:52:51.909Z,99924.59
2023-01-09T09:55:26.657Z,99944.94
2023-01-09T09:57:54.803Z,99946.50
2023-01-09T10:00:24.467Z,99956.41
2023-01-09T10:02:59.287Z,99942.63
2023-01-09T10:05:31.610Z,99953.47
2023-01-09T10:08:15.367Z,99967.69
2023-01-09T10:10:47.497Z,99972.19
2023-01-09T10:13:39.511Z,99975.47
2023-01-09T10:16:19.194Z,99974.84
2023-01-09T10:19:02.712Z,99982.28
2023-01-09T10:21:52.164Z,99972.53
2023-01-09T10:24:22.323Z,99991.19
2023-01-09T10:26:52.465Z,99992.41
2023-01-09T10:29:25.601Z,99995.31
2023-01-09T10:32:08.289Z,100007.47
2023-01-09T10:34:57.521Z,100004.00
2023-01-09T10:37:35.114Z,100024.56
2023-01-09T10:40:14.784Z,100015.31
2023-01-09T10:42:44.311Z,100027.19
2023-01-09T10:45:31.990Z,100017.66
2023-01-09T10:48:14.980Z,100022.53
2023-01-09T10:50:46.144Z,100023.66
2023-01-09T10:53:27.225Z,100024.63
2023-01-09T10:56:04.738Z,100029.72
2023-01-09T10:58:32.434Z,100029.34
2023-01-09T11:01:01.485Z,100038.00
2023-01-09T11:03:29.631Z,100023.19
2023-01-09T11:05:59.199Z,100044.16
2023-01-09T11:08:43.014Z,100038.84
2023-01-09T11:11:10.821Z,100045.88
2023-01-09T11:13:38.558Z,100040.56
2023-01-09T11:16:05.861Z,100039.13
2023-01-09T11:18:35.454Z,100039.50
2023-01-09T11:21:28.322Z,100028.34
2023-01-09T11:23:56.457Z,100029.69
2023-01-09T11:26:26.824Z,100034.00
2023-01-09T11:29:10.051Z,100030.56
2023-01-09T11:31:37.928Z,100042.00
2023-01-09T11:34:07.228Z,100034.63
2023-01-09T11:36:34.579Z,100041.44
2023-01-09T11:39:02.834Z,100034.13
2023-01-09T11:41:34.634Z,100034.19
2023-01-09T11:44:03.616Z,100041.19
2023-01-09T11:46:43.890Z,100058.50
2023-01-09T11:49:18.132Z,100057.50
2023-01-09T11:51:45.504Z,100049.59
2023-01-09T11:54:21.881Z,100055.72
2023-01-09T11:56:49.667Z,100058.91
2023-01-09T11:59:19.180Z,100054.59
2023-01-09T12:02:17.820Z,100060.97
2023-01-09T12:04:53.267Z,100055.81
2023-01-09T12:07:58.006Z,100063.38
2023-01-09T12:10:47.109Z,100071.53
2023-01-09T12:13:46.950Z,100080.19
2023-01-09T12:16:29.162Z,100087.31
2023-01-09T12:19:11.234Z,100070.41
2023-01-09T12:21:53.784Z,100068.84
2023-01-09T12:24:41.644Z,100069.03
2023-01-09T12:27:27.590Z,100079.63
2023-01-09T12:30:00.937Z,100082.09
2023-01-09T12:32:46.660Z,100084.09
2023-01-09T12:35:43.389Z,100085.56
2023-01-09T12:38:35.811Z,100093.38
2023-01-09T12:41:14.055Z,100091.25
2023-01-09T12:44:03.160Z,100092.44
2023-01-09T12:46:56.436Z,100101.19
2023-01-09T12:49:37.772Z,100100.00
2023-01-09T12:52:24.066Z,100111.41
2023-01-09T12:55:03.446Z,100093.97
2023-01-09T12:57:37.732Z,100099.53
2023-01-09T13:00:15.028Z,100117.91
2023-01-09T13:02:46.217Z,100123.69
2023-01-09T13:05:26.441Z,100138.59
2023-01-09T13:07:58.926Z,100154.75
2023-01-09T13:10:35.522Z,100141.84
2023-01-09T13:13:10.874Z,100135.69
2023-01-09T13:15:44.003Z,100147.00
2023-01-09T13:18:16.768Z,100145.03
2023-01-09T13:20:53.962Z,100137.59
2023-01-09T13:23:43.940Z,100149.25
2023-01-09T13:26:17.401Z,100147.88
2023-01-09T13:29:00.836Z,100145.28
2023-01-09T13:31:56.466Z,100156.47
2023-01-09T13:34:28.847Z,100164.06
2023-01-09T13:36:57.161Z,100177.66
2023-01-09T13:39:29.922Z,100166.16
2023-01-09T13:42:24.244Z,100170.50
2023-01-09T13:44:55.088Z,100171.47
2023-01-09T13:47:30.759Z,100177.94
2023-01-09T13:50:22.287Z,100192.00
2023-01-09T13:52:50.129Z,100200.78
2023-01-09T13:55:17.398Z,100196.84
2023-01-09T13:58:06.015Z,100205.47
2023-01-09T14:00:36.820Z,100223.88
2023-01-09T14:03:31.537Z,100226.81
2023-01-09T14:05:58.841Z,100237.06
2023-01-09T14:08:28.069Z,100248.03
2023-01-09T14:10:58.347Z,100251.88
2023-01-09T14:13:28.869Z,100250.50
2023-01-09T14:16:10.645Z,100255.34
2023-01-09T14:18:41.664Z,100240.88
2023-01-09T14:21:11.187Z,100244.47
2023-01-09T14:24:06.714Z,100248.03
2023-01-09T14:26:56.439Z,100249.00
2023-01-09T14:29:41.505Z,100261.53
2023-01-09T14:32:20.951Z,100270.72
2023-01-09T14:35:08.723Z,100274.00
2023-01-09T14:37:38.828Z,100281.75
2023-01-09T14:40:15.731Z,100287.41
2023-01-09T14:42:44.704Z,100302.16
2023-01-09T14:45:19.366Z,100312.06
2023-01-09T14:47:54.972Z,100317.09
2023-01-09T14:50:33.331Z,100303.19
2023-01-09T14:53:23.494Z,100293.09
2023-01-09T14:55:59.500Z,100305.97
2023-01-09T14:58:36.445Z,100328.75
2023-01-09T15:01:08.221Z,100340.09
2023-01-09T15:03:42.320Z,100348.38
2023-01-09T15:06:14.375Z,100344.72
2023-01-09T15:08:44.572Z,100351.97
2023-01-09T15:11:11.819Z,100350.25
2023-01-09T15:13:44.238Z,100362.31
2023-01-09T15:16:17.578Z,100362.47
2023-01-09T15:18:47.733Z,100369.44
2023-01-09T15:21:19.753Z,100362.47
2023-01-09T15:23:47.093Z,100379.50
2023-01-09T15:26:26.658Z,100380.41
2023-01-09T15:29:00.763Z,100402.47
2023-01-09T15:31:28.785Z,100396.63
2023-01-09T15:33:56.647Z,100394.69
2023-01-09T15:36:27.011Z,100412.25
2023-01-09T15:38:54.659Z,100424.31
2023-01-09T15:41:48.204Z,100420.03
2023-01-09T15:44:23.271Z,100425.34
2023-01-09T15:46:50.950Z,100432.16
2023-01-09T15:49:19.247Z,100439.03
2023-01-09T15:51:47.438Z,100439.22
2023-01-09T15:54:16.043Z,100434.84
2023-01-09T15:56:45.771Z,100430.75
2023-01-09T15:59:25.230Z,100450.59
2023-01-09T16:02:32.149Z,100449.03
2023-01-09T16:05:05.763Z,100454.09
2023-01-09T16:07:33.502Z,100463.16
2023-01-09T16:10:00.858Z,100475.50
2023-01-09T16:12:28.822Z,100487.84
2023-01-09T16:14:58.340Z,100484.59
2023-01-09T16:17:26.858Z,100486.91
2023-01-09T16:19:59.305Z,100499.81
2023-01-09T16:22:31.837Z,100518.34
2023-01-09T16:25:17.732Z,100526.31
2023-01-09T16:27:45.004Z,100530.13
2023-01-09T16:30:27.885Z,100536.69
2023-01-09T16:32:55.379Z,100552.97
2023-01-09T16:35:24.790Z,100558.25
2023-01-09T16:37:52.446Z,100552.31
2023-01-09T16:40:24.282Z,100562.50
2023-01-09T16:43:03.420Z,100574.75
2023-01-09T16:45:34.744Z,100572.00
2023-01-09T16:48:23.832Z,100587.31
2023-01-09T16:50:51.297Z,100577.28
2023-01-09T16:53:24.205Z,100594.06
2023-01-09T16:55:53.184Z,100618.78
2023-01-09T16:58:31.795Z,100628.66
2023-01-09T17:00:59.241Z,100639.38
2023-01-09T17:03:26.936Z,100620.03
2023-01-09T17:05:56.207Z,100631.56
2023-01-09T17:08:31.179Z,100647.50
2023-01-09T17:10:58.958Z,100701.38
2023-01-09T17:13:26.200Z,100694.81
2023-01-09T17:15:55.038Z,100681.16
2023-01-09T17:18:24.156Z,100692.38
2023-01-09T17:20:56.922Z,100727.25
2023-01-09T17:23:27.240Z,100730.78
2023-01-09T17:26:16.055Z,100756.69
2023-01-09T17:28:47.033Z,100736.25
2023-01-09T17:31:14.582Z,100752.50
2023-01-09T17:33:42.151Z,100751.75
2023-01-09T17:36:25.404Z,100745.00
2023-01-09T17:38:55.109Z,100737.19
2023-01-09T17:41:24.474Z,100722.28
2023-01-09T17:43:52.257Z,100693.69
2023-01-09T17:46:25.139Z,100719.53
2023-01-09T17:48:53.354Z,100723.75
2023-01-09T17:51:21.609Z,100734.19
2023-01-09T17:53:49.067Z,100731.25
2023-01-09T17:56:18.321Z,100733.13
2023-01-09T17:58:47.247Z,100732.78
2023-01-09T18:01:16.515Z,100736.56
2023-01-09T18:03:45.086Z,100741.25
2023-01-09T18:06:13.040Z,100749.63
2023-01-09T18:08:40.642Z,100753.34
2023-01-09T18:11:14.181Z,100763.72
2023-01-09T18:13:41.572Z,100772.72
2023-01-09T18:16:13.539Z,100772.63
2023-01-09T18:18:41.035Z,100770.03
2023-01-09T18:21:09.155Z,100766.59
2023-01-09T18:23:36.431Z,100766.34
2023-01-09T18:26:07.370Z,100774.44
2023-01-09T18:28:38.590Z,100784.88
2023-01-09T18:31:06.438Z,100787.03
2023-01-09T18:33:33.748Z,100805.34
2023-01-09T18:36:09.272Z,100804.00
2023-01-09T18:38:36.736Z,100811.09
2023-01-09T18:41:05.148Z,100825.81
2023-01-09T18:43:32.492Z,100827.63
2023-01-09T18:45:59.948Z,100836.53
2023-01-09T18:48:27.278Z,100839.81
2023-01-09T18:51:05.247Z,100844.63
2023-01-09T18:53:33.215Z,100850.38
2023-01-09T18:56:04.408Z,100850.09
2023-01-09T18:58:33.991Z,100856.03
2023-01-09T19:01:01.818Z,100873.41
2023-01-09T19:03:29.539Z,100870.22
2023-01-09T19:06:03.755Z,100877.97
2023-01-09T19:08:32.475Z,100874.81
2023-01-09T19:11:00.260Z,100861.97
2023-01-09T19:13:32.047Z,100880.25
2023-01-09T19:16:00.633Z,100885.47
2023-01-09T19:18:29.054Z,100884.03
2023-01-09T19:20:56.281Z,100881.25
2023-01-09T19:23:26.921Z,100897.66
2023-01-09T19:25:54.542Z,100901.66
2023-01-09T19:28:22.090Z,100908.69
2023-01-09T19:30:56.018Z,100922.03
2023-01-09T19:33:24.638Z,100915.44
2023-01-09T19:35:52.955Z,100927.94
2023-01-09T19:38:23.100Z,100925.88
2023-01-09T19:40:50.532Z,100935.03
2023-01-09T19:43:26.827Z,100934.25
2023-01-09T19:45:57.200Z,100927.19
2023-01-09T19:48:27.063Z,100935.22
2023-01-09T19:51:06.563Z,100943.16
2023-01-09T19:53:34.938Z,100936.69
2023-01-09T19:56:16.810Z,100948.44
2023-01-09T19:58:49.728Z,100951.25
2023-01-09T20:01:24.566Z,100950.50
2023-01-09T20:03:52.652Z,100957.56
2023-01-09T20:06:24.243Z,100959.69
2023-01-09T20:08:54.367Z,100960.38
2023-01-09T20:11:22.534Z,100960.41
2023-01-09T20:13:50.441Z,100963.16
2023-01-09T20:16:22.074Z,100959.47
2023-01-09T20:18:49.684Z,100966.41
2023-01-09T20:21:18.827Z,100957.16
2023-01-09T20:23:46.300Z,100975.50
2023-01-09T20:26:15.039Z,100975.19
2023-01-09T20:28:42.334Z,100990.78
2023-01-09T20:31:12.266Z,100984.75
2023-01-09T20:33:39.803Z,100998.47
2023-01-09T20:36:07.405Z,100992.44
2023-01-09T20:38:36.077Z,101016.50
2023-01-09T20:41:11.148Z,101013.28
2023-01-09T20:43:40.201Z,101019.50
2023-01-09T20:46:07.697Z,101030.09
2023-01-09T20:48:35.134Z,101030.38
2023-01-09T20:51:06.833Z,101036.47
2023-01-09T20:53:34.153Z,101032.66
2023-01-09T20:56:02.680Z,101038.44
2023-01-09T20:58:29.969Z,101046.69
2023-01-09T21:00:57.594Z,101061.06
2023-01-09T21:03:24.962Z,101046.03
2023-01-09T21:05:52.205Z,101043.25
2023-01-09T21:08:19.740Z,101050.16
2023-01-09T21:10:46.937Z,101050.97
2023-01-09T21:13:14.252Z,101052.72
2023-01-09T21:15:41.553Z,101056.50
2023-01-09T21:18:08.904Z,101072.84
2023-01-09T21:20:36.117Z,101072.34
2023-01-09T21:23:03.351Z,101071.97
2023-01-09T21:25:31.623Z,101075.84
2023-01-09T21:27:59.041Z,101083.00
2023-01-09T21:30:26.428Z,101085.22
2023-01-09T21:32:53.744Z,101098.81
2023-01-09T21:35:21.088Z,101108.16
2023-01-09T21:37:48.378Z,101105.78
2023-01-09T21:40:18.442Z,101101.97
2023-01-09T21:43:04.527Z,101109.97
2023-01-09T21:45:50.431Z,101116.03
2023-01-09T21:48:17.880Z,101105.09
2023-01-09T21:50:45.108Z,101121.75
2023-01-09T21:53:12.418Z,101133.88
2023-01-09T21:55:39.676Z,101127.56
2023-01-09T21:58:07.414Z,101137.72
2023-01-09T22:00:34.651Z,101141.13
2023-01-09T22:03:01.921Z,101158.84
2023-01-09T22:05:29.143Z,101156.34
2023-01-09T22:07:59.246Z,101168.09
2023-01-09T22:10:26.417Z,101187.84
2023-01-09T22:13:12.212Z,101180.47
2023-01-09T22:15:41.444Z,101181.53
2023-01-09T22:18:09.641Z,101184.66
2023-01-09T22:20:36.966Z,101184.47
2023-01-09T22:23:04.208Z,101202.88
2023-01-09T22:25:31.478Z,101204.72
2023-01-09T22:27:58.764Z,101201.13
2023-01-09T22:30:26.008Z,101219.50
2023-01-09T22:32:53.577Z,101217.88
2023-01-09T22:35:20.885Z,101229.47
2023-01-09T22:37:48.110Z,101232.56
2023-01-09T22:40:15.468Z,101226.03
2023-01-09T22:42:42.849Z,101229.09
2023-01-09T22:45:10.184Z,101238.53
2023-01-09T22:47:37.591Z,101250.25
2023-01-09T22:50:05.374Z,101248.03
2023-01-09T22:52:32.644Z,101254.53
2023-01-09T22:54:59.871Z,101259.00
2023-01-09T22:57:27.178Z,101257.88
2023-01-09T22:59:54.419Z,101268.38
2023-01-09T23:02:21.887Z,101267.78
2023-01-09T23:04:49.262Z,101286.28
2023-01-09T23:07:16.660Z,101285.88
2023-01-09T23:09:43.952Z,101286.28
2023-01-09T23:12:11.319Z,101286.41
2023-01-09T23:14:39.276Z,101299.94
2023-01-09T23:17:08.206Z,101299.50
2023-01-09T23:19:35.719Z,101300.84
2023-01-09T23:22:04.192Z,101297.75
2023-01-09T23:24:31.589Z,101302.69
2023-01-09T23:26:59.251Z,101306.84
2023-01-09T23:29:26.912Z,101318.91
2023-01-09T23:31:54.357Z,101321.88
2023-01-09T23:34:24.180Z,101318.47
2023-01-09T23:36:52.053Z,101331.06
2023-01-09T23:39:19.345Z,101317.81
2023-01-09T23:42:05.366Z,101318.91
2023-01-09T23:44:33.140Z,101319.16
2023-01-09T23:47:00.530Z,101331.03
2023-01-09T23:49:27.944Z,101347.50
2023-01-09T23:51:56.467Z,101337.19
2023-01-09T23:54:24.975Z,101341.44
2023-01-09T23:56:53.452Z,101348.97
2023-01-09T23:59:20.916Z,101349.19
